Time;durP1;ratioP1;P1;durP2;ratioP2;P2;SDS_P1;SDS_P2;PMS_P1;PMS_P2;Temp;Humidity;BMP_temperature;BMP_pressure;BME280_temperature;BME280_humidity;BME280_pressure;Samples;Min_cycle;Max_cycle;Signal;HPM_P1;HPM_P2
2023/06/06 00:01:49;;;;;;;7.20;5.33;;;13.10;51.00;;;;;;5017735;28;46387;-70
2023/06/06 00:04:14;;;;;;;7.97;5.27;;;13.10;51.90;;;;;;5017089;28;46538;-70
2023/06/06 00:06:44;;;;;;;8.77;5.37;;;13.10;51.80;;;;;;5017212;28;46727;-70
2023/06/06 00:09:10;;;;;;;9.50;5.20;;;13.10;51.80;;;;;;5018950;28;46403;-69
2023/06/06 00:11:39;;;;;;;13.93;5.73;;;12.90;50.90;;;;;;5017142;28;46392;-70
2023/06/06 00:14:07;;;;;;;10.03;4.47;;;12.90;51.90;;;;;;5017575;28;46518;-70
2023/06/06 00:16:33;;;;;;;8.07;4.27;;;12.90;52.10;;;;;;5015133;28;46489;-70
2023/06/06 00:19:00;;;;;;;5.73;4.30;;;12.80;52.30;;;;;;5018622;28;46524;-71
2023/06/06 00:21:27;;;;;;;6.47;4.10;;;12.80;52.40;;;;;;5018307;28;46659;-70
2023/06/06 00:23:54;;;;;;;6.53;4.13;;;12.70;52.40;;;;;;5018616;28;46754;-71
2023/06/06 00:26:20;;;;;;;7.80;4.17;;;12.70;52.70;;;;;;5017273;28;46462;-70
2023/06/06 00:28:46;;;;;;;10.93;4.53;;;12.70;52.80;;;;;;5015113;28;46089;-71
2023/06/06 00:31:12;;;;;;;10.77;5.10;;;12.60;52.20;;;;;;5017875;28;46549;-70
2023/06/06 00:33:38;;;;;;;6.67;4.33;;;12.60;53.30;;;;;;5018906;28;46438;-70
2023/06/06 00:36:04;;;;;;;6.37;3.87;;;12.60;53.60;;;;;;5011507;28;46486;-70
2023/06/06 00:38:32;;;;;;;5.87;4.20;;;12.50;53.80;;;;;;5014370;28;46428;-70
2023/06/06 00:40:58;;;;;;;9.20;4.90;;;12.40;52.80;;;;;;5016540;28;46395;-70
2023/06/06 00:43:23;;;;;;;9.23;4.70;;;12.40;53.80;;;;;;5016169;28;46421;-70
2023/06/06 00:45:49;;;;;;;7.10;4.53;;;12.40;53.80;;;;;;5015882;28;46471;-70
2023/06/06 00:48:16;;;;;;;12.20;4.73;;;12.30;53.80;;;;;;5019412;28;46530;-70
2023/06/06 00:50:42;;;;;;;12.57;4.40;;;12.30;53.80;;;;;;5018389;28;45896;-70
2023/06/06 00:53:09;;;;;;;7.83;4.70;;;12.30;52.70;;;;;;5017806;28;46023;-70
2023/06/06 00:55:36;;;;;;;6.03;3.80;;;12.30;53.80;;;;;;5019960;28;46477;-70
2023/06/06 00:58:03;;;;;;;9.27;4.97;;;12.20;53.70;;;;;;5017114;28;46441;-70
2023/06/06 01:00:32;;;;;;;7.43;5.10;;;12.20;53.90;;;;;;5018406;28;46382;-69
2023/06/06 01:03:03;;;;;;;7.20;4.03;;;12.10;53.40;;;;;;5013119;28;46729;-70
2023/06/06 01:05:29;;;;;;;7.93;4.00;;;12.10;54.40;;;;;;4998369;28;46472;-70
2023/06/06 01:07:56;;;;;;;8.53;4.50;;;12.00;54.60;;;;;;5019129;28;46440;-70
2023/06/06 01:10:23;;;;;;;8.37;4.57;;;12.00;54.90;;;;;;5016273;28;45920;-70
2023/06/06 01:13:03;;;;;;;6.73;4.00;;;11.90;54.30;;;;;;5014364;28;46781;-70
2023/06/06 01:15:39;;;;;;;7.40;4.40;;;11.90;55.50;;;;;;5018638;28;46304;-70
2023/06/06 01:18:06;;;;;;;5.60;4.20;;;11.90;55.30;;;;;;5016848;28;46474;-70
2023/06/06 01:20:33;;;;;;;6.47;4.50;;;11.90;55.30;;;;;;5014668;28;46471;-70
2023/06/06 01:22:59;;;;;;;6.33;4.60;;;11.90;54.60;;;;;;5013863;28;46638;-70
2023/06/06 01:25:25;;;;;;;7.57;3.80;;;11.90;55.50;;;;;;5016582;28;46458;-71
2023/06/06 01:27:53;;;;;;;7.27;4.13;;;11.80;55.60;;;;;;5016789;28;45911;-71
2023/06/06 01:30:22;;;;;;;7.67;4.60;;;11.80;55.60;;;;;;5016219;28;46275;-72
2023/06/06 01:33:15;;;;;;;6.00;4.37;;;11.80;55.00;;;;;;5015382;28;46371;-71
2023/06/06 01:36:14;;;;;;;5.93;4.37;;;11.80;56.00;;;;;;5013109;28;46423;-72
2023/06/06 01:38:46;;;;;;;6.43;4.33;;;11.80;55.90;;;;;;5015687;28;46319;-72
2023/06/06 01:41:16;;;;;;;6.80;4.53;;;11.70;54.70;;;;;;5016054;28;46382;-71
2023/06/06 01:43:44;;;;;;;8.73;4.40;;;11.70;55.70;;;;;;5015828;28;46987;-71
2023/06/06 01:46:11;;;;;;;7.33;4.90;;;11.60;55.90;;;;;;5013946;28;45888;-72
2023/06/06 01:48:37;;;;;;;7.23;4.77;;;11.60;56.00;;;;;;5014837;28;46564;-72
2023/06/06 01:51:03;;;;;;;9.93;5.10;;;11.60;55.20;;;;;;5017250;28;46654;-71
2023/06/06 01:53:28;;;;;;;10.77;4.43;;;11.60;56.20;;;;;;5017396;28;46584;-70
2023/06/06 01:55:55;;;;;;;7.97;4.20;;;11.50;56.20;;;;;;5016944;28;46486;-71
2023/06/06 01:58:21;;;;;;;9.00;4.40;;;11.50;56.30;;;;;;5012503;28;45986;-70
2023/06/06 02:00:46;;;;;;;6.97;4.57;;;11.50;56.50;;;;;;5017404;28;46642;-70
2023/06/06 02:03:12;;;;;;;9.80;4.33;;;11.40;55.50;;;;;;5018141;28;46391;-70
2023/06/06 02:05:38;;;;;;;7.80;4.80;;;11.50;56.70;;;;;;5014629;28;46753;-69
2023/06/06 02:08:04;;;;;;;6.90;4.50;;;11.40;56.60;;;;;;4996922;28;46080;-70
2023/06/06 02:10:30;;;;;;;8.07;4.80;;;11.40;56.60;;;;;;5014613;28;45999;-71
2023/06/06 02:12:56;;;;;;;9.13;4.80;;;11.30;55.70;;;;;;5014154;28;46363;-71
2023/06/06 02:15:26;;;;;;;10.10;5.57;;;11.30;56.90;;;;;;5016564;28;46490;-71
2023/06/06 02:17:52;;;;;;;9.70;4.80;;;11.20;56.80;;;;;;5012977;28;46411;-71
2023/06/06 02:20:18;;;;;;;7.77;3.90;;;11.30;56.60;;;;;;5017553;28;46592;-70
2023/06/06 02:22:44;;;;;;;5.90;3.70;;;11.40;55.50;;;;;;5013227;28;47228;-70
2023/06/06 02:25:11;;;;;;;8.07;4.60;;;11.40;56.20;;;;;;4998878;28;46455;-71
2023/06/06 02:27:38;;;;;;;7.13;4.10;;;11.50;55.70;;;;;;5018609;28;46489;-71
2023/06/06 02:30:07;;;;;;;10.93;4.80;;;11.60;55.60;;;;;;5014042;28;46592;-71
2023/06/06 02:32:33;;;;;;;6.60;4.20;;;11.60;54.60;;;;;;5014976;28;46379;-71
2023/06/06 02:35:03;;;;;;;5.70;3.80;;;11.60;55.40;;;;;;5014172;28;46760;-70
2023/06/06 02:37:30;;;;;;;7.90;5.00;;;11.70;55.20;;;;;;5014306;28;46509;-70
2023/06/06 02:39:56;;;;;;;7.63;4.70;;;11.80;54.80;;;;;;5017334;28;46441;-70
2023/06/06 02:42:21;;;;;;;6.60;4.27;;;11.90;53.60;;;;;;5013088;28;46366;-70
2023/06/06 02:44:47;;;;;;;15.17;4.80;;;12.00;54.20;;;;;;5017496;28;46291;-70
2023/06/06 02:47:13;;;;;;;6.97;4.37;;;12.00;53.50;;;;;;5013602;28;46463;-70
2023/06/06 02:49:39;;;;;;;8.43;4.73;;;12.10;53.60;;;;;;5014526;28;46307;-70
2023/06/06 02:52:06;;;;;;;8.77;5.17;;;12.20;52.60;;;;;;5017598;28;47026;-70
2023/06/06 02:54:33;;;;;;;5.80;4.17;;;12.30;53.80;;;;;;5016688;28;45820;-69
2023/06/06 02:57:00;;;;;;;7.60;5.00;;;12.30;53.80;;;;;;5013801;28;45869;-70
2023/06/06 02:59:26;;;;;;;6.70;4.47;;;12.40;54.00;;;;;;5016946;28;46364;-70
2023/06/06 03:01:52;;;;;;;6.80;4.27;;;12.50;53.90;;;;;;5017065;28;47115;-70
2023/06/06 03:04:17;;;;;;;6.90;4.60;;;12.50;53.90;;;;;;5016492;28;46381;-70
2023/06/06 03:06:43;;;;;;;6.87;5.03;;;12.60;54.10;;;;;;5013053;28;46392;-71
2023/06/06 03:09:09;;;;;;;12.43;5.30;;;12.60;54.00;;;;;;5014988;28;46400;-70
2023/06/06 03:11:35;;;;;;;7.30;5.10;;;12.60;54.00;;;;;;5016293;28;46713;-71
2023/06/06 03:14:01;;;;;;;7.40;5.00;;;12.70;54.10;;;;;;5017475;28;46440;-70
2023/06/06 03:16:28;;;;;;;7.37;5.07;;;12.60;54.00;;;;;;5013644;28;46519;-70
2023/06/06 03:18:54;;;;;;;8.67;5.43;;;12.60;54.00;;;;;;5016504;28;46324;-70
2023/06/06 03:21:20;;;;;;;10.00;6.37;;;12.50;52.90;;;;;;5016086;28;46682;-70
2023/06/06 03:23:46;;;;;;;7.77;5.97;;;12.50;54.00;;;;;;5014605;28;46394;-70
2023/06/06 03:26:12;;;;;;;7.97;5.50;;;12.40;54.40;;;;;;5015561;28;46400;-71
2023/06/06 03:28:37;;;;;;;9.67;5.90;;;12.30;54.90;;;;;;5016386;28;46577;-71
2023/06/06 03:31:07;;;;;;;7.23;4.93;;;12.20;54.80;;;;;;5020910;28;46403;-70
2023/06/06 03:33:35;;;;;;;7.70;5.50;;;12.20;55.70;;;;;;5019566;28;46466;-70
2023/06/06 03:36:01;;;;;;;8.40;5.20;;;12.10;56.00;;;;;;5018052;28;46601;-70
2023/06/06 03:38:27;;;;;;;10.53;5.90;;;12.10;56.00;;;;;;5020387;28;46438;-71
2023/06/06 03:40:53;;;;;;;8.77;5.60;;;12.10;55.30;;;;;;5019441;28;46508;-71
2023/06/06 03:43:19;;;;;;;11.93;5.70;;;12.00;56.20;;;;;;5016983;28;46371;-71
2023/06/06 03:45:44;;;;;;;10.00;5.63;;;12.10;56.40;;;;;;5016148;28;46478;-71
2023/06/06 03:48:10;;;;;;;13.80;6.60;;;12.10;56.30;;;;;;5018367;28;46535;-70
2023/06/06 03:50:36;;;;;;;8.20;5.73;;;12.10;56.40;;;;;;5018453;28;46353;-70
2023/06/06 03:53:02;;;;;;;10.70;5.60;;;12.10;56.20;;;;;;5014836;28;46415;-71
2023/06/06 03:55:33;;;;;;;9.73;5.53;;;12.10;56.20;;;;;;5018802;28;46558;-70
2023/06/06 03:57:59;;;;;;;8.17;5.70;;;12.10;56.20;;;;;;5018763;28;46361;-71
2023/06/06 04:00:25;;;;;;;14.23;5.37;;;12.20;56.10;;;;;;5015347;28;46486;-70
2023/06/06 04:02:51;;;;;;;10.43;6.03;;;12.20;55.10;;;;;;5019216;28;46468;-68
2023/06/06 04:05:18;;;;;;;8.60;5.90;;;12.30;55.90;;;;;;5020892;28;46450;-70
2023/06/06 04:07:44;;;;;;;7.30;5.43;;;12.40;55.80;;;;;;5015938;28;46498;-70
2023/06/06 04:10:10;;;;;;;8.70;5.70;;;12.40;55.60;;;;;;5016470;28;46460;-70
2023/06/06 04:12:36;;;;;;;9.50;5.70;;;12.40;54.60;;;;;;5018975;28;46391;-72
2023/06/06 04:15:02;;;;;;;8.30;6.30;;;12.50;55.60;;;;;;5017656;28;46368;-70
2023/06/06 04:17:28;;;;;;;14.50;6.00;;;12.50;55.20;;;;;;5016269;28;45868;-72
2023/06/06 04:19:55;;;;;;;8.10;5.23;;;12.70;55.00;;;;;;5017316;28;46408;-71
2023/06/06 04:22:24;;;;;;;7.10;5.10;;;12.70;54.50;;;;;;5015066;28;46348;-72
2023/06/06 04:24:50;;;;;;;6.40;4.80;;;12.80;54.30;;;;;;5015622;28;46474;-71
2023/06/06 04:27:18;;;;;;;7.80;5.30;;;12.90;54.30;;;;;;5017354;28;46601;-70
2023/06/06 04:29:44;;;;;;;8.90;5.37;;;13.00;54.40;;;;;;5019303;28;46657;-72
2023/06/06 04:32:11;;;;;;;11.13;5.40;;;13.10;53.40;;;;;;5016826;28;46427;-72
2023/06/06 04:34:41;;;;;;;16.77;4.70;;;13.20;54.60;;;;;;5016386;28;46392;-72
2023/06/06 04:37:08;;;;;;;7.43;4.80;;;13.30;54.10;;;;;;5015284;28;46332;-71
2023/06/06 04:39:35;;;;;;;12.50;5.50;;;13.40;53.60;;;;;;5019308;28;46187;-71
2023/06/06 04:42:05;;;;;;;6.83;4.63;;;14.00;50.60;;;;;;5017835;28;46503;-71
2023/06/06 04:44:41;;;;;;;8.13;4.60;;;14.70;50.60;;;;;;5017095;28;46697;-72
2023/06/06 04:47:08;;;;;;;6.80;4.53;;;16.30;48.60;;;;;;5017264;28;46523;-72
2023/06/06 04:49:39;;;;;;;9.50;3.73;;;17.70;45.50;;;;;;5017831;28;46494;-72
2023/06/06 04:52:10;;;;;;;5.67;3.90;;;18.90;41.70;;;;;;5019232;28;46353;-72
2023/06/06 04:54:40;;;;;;;7.90;3.90;;;19.90;38.50;;;;;;5018067;28;46458;-72
2023/06/06 04:57:15;;;;;;;7.40;4.33;;;20.50;36.30;;;;;;5019024;28;46351;-72
2023/06/06 04:59:41;;;;;;;6.73;3.83;;;20.90;34.90;;;;;;5019345;28;47172;-72
2023/06/06 05:02:07;;;;;;;5.70;4.10;;;21.40;33.30;;;;;;5016739;28;46524;-73
2023/06/06 05:04:33;;;;;;;5.10;3.80;;;22.10;31.40;;;;;;5018527;28;46378;-72
2023/06/06 05:06:59;;;;;;;6.13;3.90;;;22.70;29.40;;;;;;5018293;28;46540;-72
2023/06/06 05:09:26;;;;;;;6.73;4.00;;;23.20;28.10;;;;;;5018813;28;47059;-72
2023/06/06 05:11:52;;;;;;;7.23;4.57;;;23.70;26.60;;;;;;5016314;28;46398;-72
2023/06/06 05:14:25;;;;;;;7.20;4.33;;;23.50;25.60;;;;;;5018123;28;46511;-73
2023/06/06 05:16:52;;;;;;;7.80;5.10;;;23.40;25.70;;;;;;5016592;28;46624;-72
2023/06/06 05:19:18;;;;;;;8.33;4.23;;;23.80;25.10;;;;;;5017729;28;46972;-72
2023/06/06 05:21:44;;;;;;;7.23;4.53;;;23.60;23.10;;;;;;5014949;28;45888;-72
2023/06/06 05:24:10;;;;;;;7.10;4.67;;;22.80;23.30;;;;;;5018405;28;46578;-72
2023/06/06 05:26:35;;;;;;;8.93;4.43;;;21.80;24.00;;;;;;5019455;28;45952;-72
2023/06/06 05:29:01;;;;;;;6.43;4.40;;;21.80;24.20;;;;;;5016972;28;46006;-72
2023/06/06 05:31:27;;;;;;;7.57;4.87;;;20.90;23.70;;;;;;5016720;28;46430;-72
2023/06/06 05:33:54;;;;;;;7.07;5.17;;;19.60;26.10;;;;;;5001521;28;46285;-72
2023/06/06 05:36:20;;;;;;;7.40;4.90;;;18.70;28.10;;;;;;5014321;28;46439;-72
2023/06/06 05:38:46;;;;;;;8.57;5.10;;;18.30;28.60;;;;;;5015811;28;46340;-72
2023/06/06 05:41:13;;;;;;;8.70;5.03;;;18.10;28.80;;;;;;5015765;28;46447;-73
2023/06/06 05:43:38;;;;;;;9.07;5.40;;;18.00;28.80;;;;;;5018087;28;46442;-72
2023/06/06 05:46:04;;;;;;;6.27;4.23;;;18.00;28.90;;;;;;5014880;28;46529;-72
2023/06/06 05:48:30;;;;;;;8.90;5.30;;;17.90;28.60;;;;;;5015821;28;46456;-70
2023/06/06 05:50:56;;;;;;;9.33;5.30;;;17.90;28.80;;;;;;5011047;28;46346;-72
2023/06/06 05:53:23;;;;;;;8.90;5.60;;;17.80;28.90;;;;;;5016698;28;46398;-71
2023/06/06 05:55:49;;;;;;;10.07;5.90;;;17.80;29.00;;;;;;5017523;28;46451;-70
2023/06/06 05:58:15;;;;;;;9.60;5.80;;;17.90;29.10;;;;;;5017975;28;46595;-71
2023/06/06 06:00:42;;;;;;;7.10;5.03;;;17.90;29.20;;;;;;5013641;28;46466;-71
2023/06/06 06:03:08;;;;;;;9.53;5.40;;;18.10;29.30;;;;;;5017411;28;46421;-72
2023/06/06 06:05:34;;;;;;;9.93;4.77;;;18.10;29.20;;;;;;5017447;28;46432;-71
2023/06/06 06:08:02;;;;;;;9.70;5.50;;;18.10;29.40;;;;;;5014462;28;46355;-70
2023/06/06 06:10:31;;;;;;;6.50;4.90;;;18.10;29.70;;;;;;5018105;28;46352;-71
2023/06/06 06:12:58;;;;;;;10.77;5.20;;;18.20;30.60;;;;;;5017766;28;46858;-71
2023/06/06 06:15:24;;;;;;;9.00;5.00;;;18.30;32.70;;;;;;5019873;28;46516;-74
2023/06/06 06:17:50;;;;;;;8.43;4.80;;;18.30;31.90;;;;;;5014586;28;46477;-71
2023/06/06 06:20:17;;;;;;;11.03;5.70;;;18.40;32.60;;;;;;5002179;28;46507;-70
2023/06/06 06:22:43;;;;;;;7.17;4.60;;;18.50;32.60;;;;;;5002260;28;46398;-72
2023/06/06 06:25:12;;;;;;;6.90;4.83;;;18.60;32.20;;;;;;5000561;28;46333;-72
2023/06/06 06:27:39;;;;;;;7.73;4.70;;;18.70;32.00;;;;;;5013665;28;46914;-72
2023/06/06 06:30:05;;;;;;;8.77;5.07;;;18.90;31.70;;;;;;5017135;28;46469;-70
2023/06/06 06:32:37;;;;;;;6.67;4.37;;;18.90;31.50;;;;;;5018366;28;46351;-71
2023/06/06 06:35:04;;;;;;;6.80;4.53;;;18.70;31.00;;;;;;5017106;28;45829;-72
2023/06/06 06:37:30;;;;;;;13.40;5.40;;;18.70;30.30;;;;;;5015800;28;47201;-71
2023/06/06 06:39:57;;;;;;;9.97;5.00;;;18.70;30.10;;;;;;5014772;28;46387;-71
2023/06/06 06:42:23;;;;;;;9.00;4.60;;;19.10;28.70;;;;;;5012605;28;46498;-71
2023/06/06 06:44:49;;;;;;;8.70;4.70;;;19.00;29.50;;;;;;5014331;28;46690;-70
2023/06/06 06:47:15;;;;;;;7.30;4.43;;;18.70;30.10;;;;;;5014310;28;46648;-71
2023/06/06 06:49:41;;;;;;;7.37;4.50;;;19.40;29.50;;;;;;5015466;28;46449;-70
2023/06/06 06:52:11;;;;;;;7.03;4.53;;;20.40;26.10;;;;;;5016173;28;45871;-71
2023/06/06 06:54:45;;;;;;;7.50;4.83;;;20.40;26.50;;;;;;5014610;28;46430;-71
2023/06/06 06:57:11;;;;;;;10.20;5.23;;;20.30;26.30;;;;;;5021173;28;46573;-71
2023/06/06 06:59:37;;;;;;;6.87;4.23;;;20.30;26.10;;;;;;5019143;28;45817;-72
2023/06/06 07:02:03;;;;;;;21.57;7.10;;;19.90;26.60;;;;;;5015237;28;46597;-70
2023/06/06 07:04:28;;;;;;;9.87;5.20;;;20.20;26.90;;;;;;5015457;28;46106;-71
2023/06/06 07:06:55;;;;;;;9.23;4.53;;;20.50;25.20;;;;;;5019257;28;46491;-71
2023/06/06 07:09:21;;;;;;;8.57;4.63;;;21.00;24.50;;;;;;5017468;28;46563;-72
2023/06/06 07:11:46;;;;;;;7.73;4.50;;;21.00;24.40;;;;;;5018322;28;46383;-72
2023/06/06 07:14:12;;;;;;;7.77;4.70;;;20.90;24.50;;;;;;5016636;28;46545;-71
2023/06/06 07:16:38;;;;;;;8.70;5.13;;;20.40;24.40;;;;;;5018499;28;47081;-69
2023/06/06 07:19:03;;;;;;;8.70;4.60;;;20.20;26.10;;;;;;5019474;28;46408;-70
2023/06/06 07:21:29;;;;;;;9.10;5.30;;;20.00;25.70;;;;;;5015698;28;46490;-70
2023/06/06 07:23:55;;;;;;;10.63;5.13;;;20.00;26.20;;;;;;5018908;28;46366;-70
2023/06/06 07:26:21;;;;;;;7.20;4.40;;;20.10;26.20;;;;;;5018007;28;47185;-65
2023/06/06 07:28:47;;;;;;;7.87;4.50;;;20.40;25.70;;;;;;5016959;28;46425;-69
2023/06/06 07:31:16;;;;;;;8.93;4.77;;;20.70;25.30;;;;;;5015487;28;46315;-70
2023/06/06 07:33:42;;;;;;;7.37;4.83;;;20.90;25.30;;;;;;5017067;28;46462;-72
2023/06/06 07:36:09;;;;;;;9.13;5.27;;;21.10;24.80;;;;;;5015608;28;46785;-70
2023/06/06 07:38:35;;;;;;;7.93;5.10;;;20.90;24.60;;;;;;5015229;28;46572;-68
2023/06/06 07:41:00;;;;;;;11.13;5.70;;;20.60;24.20;;;;;;5016295;28;46393;-67
2023/06/06 07:43:26;;;;;;;11.20;6.37;;;20.70;25.10;;;;;;5016837;28;46395;-69
2023/06/06 07:45:52;;;;;;;9.00;5.33;;;21.20;24.30;;;;;;5014694;28;46950;-69
2023/06/06 07:48:18;;;;;;;7.73;5.10;;;21.00;23.90;;;;;;5014649;28;46678;-69
2023/06/06 07:50:44;;;;;;;11.23;5.40;;;20.70;24.20;;;;;;5011673;28;46062;-70
2023/06/06 07:53:10;;;;;;;8.33;5.37;;;20.50;23.80;;;;;;5017606;28;46676;-68
2023/06/06 07:55:37;;;;;;;12.30;5.27;;;20.30;24.20;;;;;;5016324;28;46728;-68
2023/06/06 07:58:10;;;;;;;7.87;5.40;;;20.10;24.10;;;;;;4997078;28;46386;-67
2023/06/06 08:00:36;;;;;;;10.00;5.47;;;19.90;24.40;;;;;;5015172;28;46441;-68
2023/06/06 08:03:01;;;;;;;8.30;5.57;;;19.80;24.50;;;;;;5018117;28;46340;-71
2023/06/06 08:05:27;;;;;;;9.20;5.00;;;20.30;24.50;;;;;;5014124;28;46634;-67
2023/06/06 08:07:53;;;;;;;11.03;6.50;;;20.80;23.60;;;;;;5013233;28;46377;-71
2023/06/06 08:10:19;;;;;;;9.27;5.23;;;21.10;23.20;;;;;;5013523;28;46381;-67
2023/06/06 08:12:45;;;;;;;7.57;5.10;;;21.30;22.90;;;;;;5016109;28;46606;-73
2023/06/06 08:15:11;;;;;;;7.07;4.83;;;21.40;22.70;;;;;;5015282;28;46460;-71
2023/06/06 08:17:37;;;;;;;9.47;5.47;;;21.20;23.30;;;;;;5013498;28;46554;-70
2023/06/06 08:20:06;;;;;;;11.80;5.60;;;21.30;22.90;;;;;;5014903;28;46434;-68
2023/06/06 08:22:33;;;;;;;12.77;6.80;;;21.60;21.70;;;;;;5018524;28;46420;-71
2023/06/06 08:25:04;;;;;;;8.40;4.13;;;21.60;22.30;;;;;;5016121;28;46525;-69
2023/06/06 08:27:30;;;;;;;9.20;4.90;;;21.70;22.30;;;;;;5013473;28;46692;-69
2023/06/06 08:29:56;;;;;;;8.60;5.60;;;21.80;21.70;;;;;;5014439;28;46987;-72
2023/06/06 08:32:22;;;;;;;7.17;4.30;;;21.20;22.40;;;;;;5014743;28;46347;-71
2023/06/06 08:34:47;;;;;;;7.00;4.10;;;20.90;22.70;;;;;;5011202;28;46313;-71
2023/06/06 08:37:13;;;;;;;10.77;4.17;;;20.80;23.00;;;;;;5014126;28;46473;-71
2023/06/06 08:39:40;;;;;;;6.87;4.20;;;20.80;21.90;;;;;;5014780;28;46509;-71
2023/06/06 08:42:09;;;;;;;6.23;3.93;;;20.50;21.70;;;;;;5016747;28;46604;-70
2023/06/06 08:44:35;;;;;;;6.57;4.20;;;20.70;22.40;;;;;;4997986;28;47003;-70
2023/06/06 08:47:02;;;;;;;9.40;4.53;;;21.00;22.00;;;;;;5011218;28;46482;-68
2023/06/06 08:49:30;;;;;;;5.90;4.07;;;21.30;21.80;;;;;;5013246;28;46336;-72
2023/06/06 08:51:58;;;;;;;7.70;4.10;;;21.40;21.80;;;;;;5017826;28;46480;-68
2023/06/06 08:54:25;;;;;;;6.83;3.80;;;21.60;21.80;;;;;;5016108;28;47198;-70
2023/06/06 08:56:54;;;;;;;7.20;4.00;;;22.00;21.40;;;;;;5016133;28;46720;-70
2023/06/06 08:59:21;;;;;;;5.80;3.70;;;22.10;21.20;;;;;;5015210;28;46490;-69
2023/06/06 09:01:50;;;;;;;7.80;3.67;;;22.50;19.90;;;;;;5017988;28;46401;-71
2023/06/06 09:04:17;;;;;;;7.27;4.50;;;22.50;20.60;;;;;;5016624;28;46408;-70
2023/06/06 09:06:46;;;;;;;8.10;4.30;;;22.60;20.60;;;;;;5012166;28;46688;-69
2023/06/06 09:09:12;;;;;;;8.20;4.10;;;22.60;20.40;;;;;;5013421;28;46563;-68
2023/06/06 09:11:38;;;;;;;6.10;3.80;;;22.50;20.10;;;;;;4999243;28;46539;-68
2023/06/06 09:14:05;;;;;;;6.03;4.00;;;22.20;20.60;;;;;;5015361;28;47259;-66
2023/06/06 09:16:32;;;;;;;8.17;4.30;;;21.90;20.30;;;;;;5015876;28;45896;-67
2023/06/06 09:18:58;;;;;;;5.40;3.70;;;21.80;20.90;;;;;;5021300;28;46619;-67
2023/06/06 09:21:33;;;;;;;6.77;4.00;;;22.10;20.40;;;;;;5009582;28;46478;-70
2023/06/06 09:24:00;;;;;;;6.30;4.07;;;22.20;19.60;;;;;;5013781;28;47188;-71
2023/06/06 09:26:27;;;;;;;5.73;3.50;;;22.40;19.30;;;;;;5013264;28;46582;-73
2023/06/06 09:28:55;;;;;;;9.73;4.07;;;22.50;18.90;;;;;;5011770;28;46455;-71
2023/06/06 09:31:37;;;;;;;8.77;4.00;;;22.60;18.80;;;;;;5013579;28;46484;-70
2023/06/06 09:34:03;;;;;;;6.20;3.53;;;22.50;18.80;;;;;;5012066;28;47745;-70
2023/06/06 09:36:29;;;;;;;8.10;4.30;;;22.50;19.00;;;;;;5016325;28;46334;-70
2023/06/06 09:39:10;;;;;;;6.53;3.40;;;22.70;18.90;;;;;;5017327;28;46419;-69
2023/06/06 09:41:45;;;;;;;8.77;3.87;;;22.80;18.20;;;;;;5015797;28;46508;-70
2023/06/06 09:44:21;;;;;;;10.10;3.33;;;22.80;17.10;;;;;;5009773;28;46466;-69
2023/06/06 09:46:57;;;;;;;6.30;3.60;;;22.70;17.00;;;;;;5011521;28;46665;-69
2023/06/06 09:49:22;;;;;;;5.73;3.53;;;22.50;17.50;;;;;;5015548;28;46411;-71
2023/06/06 09:51:53;;;;;;;5.97;4.10;;;22.60;17.50;;;;;;5016573;28;46514;-71
2023/06/06 09:54:21;;;;;;;7.33;3.63;;;22.80;17.10;;;;;;5012293;28;46457;-71
2023/06/06 09:56:47;;;;;;;9.03;3.70;;;23.00;16.40;;;;;;5012098;28;46350;-71
2023/06/06 09:59:14;;;;;;;5.67;3.20;;;23.00;15.50;;;;;;5011740;28;46245;-70
2023/06/06 10:01:43;;;;;;;7.77;3.50;;;23.10;15.10;;;;;;5012430;28;46562;-69
2023/06/06 10:04:09;;;;;;;7.03;3.40;;;23.30;13.70;;;;;;5010590;28;46548;-69
2023/06/06 10:06:38;;;;;;;6.33;3.80;;;23.20;13.50;;;;;;5011265;28;46784;-69
2023/06/06 10:09:05;;;;;;;8.83;3.37;;;22.80;13.30;;;;;;5016146;28;45905;-69
2023/06/06 10:11:34;;;;;;;5.07;3.10;;;23.10;12.70;;;;;;5013404;28;45863;-70
2023/06/06 10:14:05;;;;;;;6.87;3.90;;;23.10;13.60;;;;;;4995458;28;47151;-70
2023/06/06 10:16:34;;;;;;;6.60;3.30;;;23.40;11.70;;;;;;5013903;28;46415;-69
2023/06/06 10:19:00;;;;;;;5.97;3.67;;;23.10;10.40;;;;;;5010582;28;45853;-70
2023/06/06 10:21:28;;;;;;;5.80;3.20;;;23.40;10.10;;;;;;5010822;28;46902;-73
2023/06/06 10:23:54;;;;;;;8.43;3.93;;;23.40;11.20;;;;;;5012881;28;46867;-70
2023/06/06 10:26:44;;;;;;;5.93;3.00;;;23.40;10.80;;;;;;5013397;28;46338;-70
2023/06/06 10:29:24;;;;;;;6.03;3.00;;;23.60;10.60;;;;;;5012335;28;46305;-69
2023/06/06 10:31:57;;;;;;;6.17;3.50;;;23.50;10.40;;;;;;5010112;28;46371;-72
2023/06/06 10:34:32;;;;;;;6.60;3.23;;;24.20;9.70;;;;;;5013770;28;47331;-71
2023/06/06 10:37:16;;;;;;;6.27;3.30;;;23.70;9.70;;;;;;5013946;28;46406;-70
2023/06/06 10:39:47;;;;;;;6.00;3.50;;;23.40;8.20;;;;;;5013683;28;46298;-70
2023/06/06 10:42:14;;;;;;;6.27;3.27;;;23.10;8.70;;;;;;5016697;28;46703;-68
2023/06/06 10:44:45;;;;;;;6.37;3.13;;;23.10;8.70;;;;;;5014835;28;47446;-67
2023/06/06 10:47:23;;;;;;;9.60;3.23;;;23.40;8.80;;;;;;5017876;28;46504;-69
2023/06/06 10:50:08;;;;;;;4.47;2.70;;;23.70;9.00;;;;;;5018283;28;45906;-70
2023/06/06 10:52:46;;;;;;;5.60;3.20;;;23.60;6.80;;;;;;5018473;28;46561;-70
2023/06/06 10:55:24;;;;;;;6.80;3.50;;;23.10;8.40;;;;;;5020928;28;47043;-70
2023/06/06 10:58:10;;;;;;;5.70;3.20;;;22.80;8.70;;;;;;5016122;28;46489;-72
2023/06/06 11:00:46;;;;;;;6.43;3.27;;;22.90;8.10;;;;;;5017435;28;46957;-72
2023/06/06 11:03:15;;;;;;;5.47;3.30;;;22.90;8.30;;;;;;5015927;28;46403;-72
2023/06/06 11:06:00;;;;;;;8.70;2.77;;;23.00;8.70;;;;;;5011813;28;46625;-69
2023/06/06 11:08:45;;;;;;;6.27;3.50;;;23.40;8.60;;;;;;5015250;28;46301;-68
2023/06/06 11:11:30;;;;;;;7.63;3.53;;;23.80;5.80;;;;;;5017248;28;46509;-70
2023/06/06 11:13:56;;;;;;;6.47;3.07;;;23.80;6.80;;;;;;5018723;28;46554;-71
2023/06/06 11:16:40;;;;;;;6.00;3.50;;;23.40;6.70;;;;;;5018625;28;46555;-70
2023/06/06 11:19:11;;;;;;;6.67;3.10;;;23.40;7.70;;;;;;5018660;28;46783;-70
2023/06/06 11:21:40;;;;;;;7.37;3.00;;;23.70;7.30;;;;;;5017886;28;45848;-69
2023/06/06 11:24:07;;;;;;;4.73;2.80;;;24.10;6.70;;;;;;5019930;28;46447;-68
2023/06/06 11:26:34;;;;;;;6.60;3.13;;;24.30;5.70;;;;;;5001200;28;47890;-69
2023/06/06 11:29:00;;;;;;;5.70;3.30;;;24.10;5.10;;;;;;5017456;28;46392;-70
2023/06/06 11:31:27;;;;;;;6.73;3.20;;;23.70;5.40;;;;;;5014483;28;46622;-70
2023/06/06 11:34:14;;;;;;;8.00;3.57;;;23.40;6.00;;;;;;5015631;28;46594;-70
2023/06/06 11:36:42;;;;;;;9.23;3.10;;;23.70;7.20;;;;;;5014829;28;46981;-70
2023/06/06 11:39:11;;;;;;;7.10;3.20;;;24.00;7.30;;;;;;5016187;28;46417;-70
2023/06/06 11:44:16;;;;;;;7.90;3.80;;;24.00;5.90;;;;;;5246092;22;46794;-78
2023/06/06 11:46:52;;;;;;;6.30;3.40;;;24.00;5.40;;;;;;5026159;28;46340;-79
2023/06/06 11:49:19;;;;;;;5.40;3.60;;;24.00;5.70;;;;;;5034551;28;46486;-76
2023/06/06 11:52:01;;;;;;;6.33;3.10;;;24.40;5.50;;;;;;5027449;28;46366;-77
2023/06/06 11:54:28;;;;;;;8.40;3.40;;;24.40;3.00;;;;;;5031810;28;47388;-78
2023/06/06 11:56:56;;;;;;;12.30;3.80;;;24.20;4.10;;;;;;5011258;28;46586;-78
2023/06/06 11:59:23;;;;;;;9.40;5.00;;;24.40;4.50;;;;;;5017045;28;46477;-78
2023/06/06 12:01:53;;;;;;;6.60;3.20;;;25.00;4.40;;;;;;5018488;28;46407;-80
2023/06/06 12:04:20;;;;;;;20.17;3.90;;;25.30;3.60;;;;;;5014343;28;46429;-80
2023/06/06 12:06:50;;;;;;;7.40;3.10;;;25.30;3.60;;;;;;5019900;28;46890;-80
2023/06/06 12:09:18;;;;;;;10.40;3.43;;;24.60;3.20;;;;;;5010455;28;46972;-79
2023/06/06 12:11:56;;;;;;;5.97;3.20;;;24.20;3.90;;;;;;5031524;28;46634;-78
2023/06/06 12:14:23;;;;;;;6.00;3.40;;;24.60;2.90;;;;;;5020296;28;46414;-77
2023/06/06 12:16:50;;;;;;;6.63;3.50;;;24.90;3.40;;;;;;5016608;28;46478;-77
2023/06/06 12:19:16;;;;;;;7.93;3.50;;;25.30;3.70;;;;;;5009415;28;46497;-79
2023/06/06 12:21:46;;;;;;;6.40;3.23;;;25.60;3.80;;;;;;5013399;28;46427;-79
2023/06/06 12:24:16;;;;;;;9.17;3.70;;;25.50;3.70;;;;;;5013950;28;46623;-83
2023/06/06 12:27:02;;;;;;;5.30;2.73;;;25.40;3.70;;;;;;5014805;28;47263;-79
2023/06/06 12:29:35;;;;;;;7.30;3.57;;;25.40;3.70;;;;;;5019307;28;46492;-82
2023/06/06 12:32:25;;;;;;;6.63;3.10;;;25.30;2.50;;;;;;5013932;28;46452;-80
2023/06/06 12:35:05;;;;;;;36.63;16.13;;;25.30;1.10;;;;;;5016707;28;46412;-80
2023/06/06 12:37:46;;;;;;;9.00;3.77;;;24.80;2.60;;;;;;5015382;28;46695;-78
2023/06/06 12:40:23;;;;;;;7.10;3.40;;;24.20;3.10;;;;;;5013350;28;46952;-82
2023/06/06 12:42:57;;;;;;;7.67;3.47;;;23.40;3.80;;;;;;5014434;28;46423;-78
2023/06/06 12:45:24;;;;;;;5.27;3.20;;;23.30;4.90;;;;;;5014038;28;46416;-78
2023/06/06 12:47:51;;;;;;;4.93;3.00;;;23.50;5.20;;;;;;5015654;28;47539;-77
2023/06/06 12:50:17;;;;;;;6.90;3.33;;;23.60;5.10;;;;;;5013019;28;46403;-80
2023/06/06 12:52:43;;;;;;;8.53;2.90;;;23.40;4.70;;;;;;5016332;28;46430;-80
2023/06/06 12:55:09;;;;;;;9.00;3.70;;;23.40;5.70;;;;;;5030268;28;46498;-80
2023/06/06 12:57:34;;;;;;;11.10;3.50;;;23.50;5.60;;;;;;5013514;28;46672;-79